createdAt,value
2023-04-25T00:00:42.781Z,99506.97
2023-04-25T00:03:45.054Z,99503.44
2023-04-25T00:06:47.568Z,99495.78
2023-04-25T00:09:49.422Z,99492.94
2023-04-25T00:12:51.288Z,99495.63
2023-04-25T00:15:57.633Z,99502.06
2023-04-25T00:18:59.760Z,99486.91
2023-04-25T00:22:02.197Z,99484.22
2023-04-25T00:25:06.322Z,99473.03
2023-04-25T00:28:08.116Z,99470.59
2023-04-25T00:31:10.015Z,99449.47
2023-04-25T00:34:12.003Z,99459.00
2023-04-25T00:37:13.869Z,99453.16
2023-04-25T00:40:15.637Z,99454.00
2023-04-25T00:43:17.446Z,99451.63
2023-04-25T00:46:19.322Z,99450.34
2023-04-25T00:49:21.222Z,99446.09
2023-04-25T00:52:23.539Z,99447.03
2023-04-25T00:55:25.323Z,99431.28
2023-04-25T00:58:27.343Z,99441.03
2023-04-25T01:01:29.426Z,99433.72
2023-04-25T01:04:31.402Z,99438.94
2023-04-25T01:07:33.302Z,99440.03
2023-04-25T01:10:35.413Z,99444.72
2023-04-25T01:13:37.608Z,99440.19
2023-04-25T01:16:39.571Z,99442.66
2023-04-25T01:19:41.770Z,99443.66
2023-04-25T01:22:44.441Z,99431.16
2023-04-25T01:25:46.606Z,99441.19
2023-04-25T01:28:48.494Z,99441.69
2023-04-25T01:31:51.002Z,99440.25
2023-04-25T01:34:52.868Z,99432.09
2023-04-25T01:37:54.809Z,99436.66
2023-04-25T01:40:57.140Z,99429.31
2023-04-25T01:43:59.185Z,99443.72
2023-04-25T01:47:01.138Z,99431.13
2023-04-25T01:50:05.367Z,99433.34
2023-04-25T01:53:07.759Z,99434.22
2023-04-25T01:56:09.604Z,99437.87
2023-04-25T01:59:11.862Z,99441.66
2023-04-25T02:02:13.760Z,99432.91
2023-04-25T02:05:15.650Z,99436.69
2023-04-25T02:08:18.249Z,99417.16
2023-04-25T02:11:20.179Z,99426.22
2023-04-25T02:14:22.151Z,99427.44
2023-04-25T02:17:24.051Z,99430.13
2023-04-25T02:20:26.220Z,99426.25
2023-04-25T02:23:28.249Z,99418.69
2023-04-25T02:26:31.040Z,99425.75
2023-04-25T02:29:32.910Z,99430.25
2023-04-25T02:32:35.349Z,99411.12
2023-04-25T02:35:37.314Z,99422.22
2023-04-25T02:38:39.463Z,99421.22
2023-04-25T02:41:41.441Z,99409.62
2023-04-25T02:44:43.516Z,99396.47
2023-04-25T02:47:45.644Z,99401.06
2023-04-25T02:50:47.520Z,99388.38
2023-04-25T02:53:49.552Z,99385.94
2023-04-25T02:56:51.508Z,99383.25
2023-04-25T02:59:53.318Z,99398.13
2023-04-25T03:02:55.383Z,99407.16
2023-04-25T03:05:57.309Z,99403.00
2023-04-25T03:08:59.272Z,99406.94
2023-04-25T03:12:01.381Z,99410.75
2023-04-25T03:15:04.071Z,99412.09
2023-04-25T03:18:05.961Z,99405.03
2023-04-25T03:21:07.928Z,99423.34
2023-04-25T03:24:12.059Z,99422.03
2023-04-25T03:27:14.066Z,99418.84
2023-04-25T03:30:15.957Z,99423.28
2023-04-25T03:33:17.835Z,99420.59
2023-04-25T03:36:19.638Z,99415.34
2023-04-25T03:39:21.438Z,99432.31
2023-04-25T03:42:23.964Z,99422.56
2023-04-25T03:45:28.008Z,99439.16
2023-04-25T03:48:29.803Z,99430.63
2023-04-25T03:51:32.104Z,99438.22
2023-04-25T03:54:33.917Z,99434.03
2023-04-25T03:57:35.730Z,99434.44
2023-04-25T04:00:37.953Z,99440.03
2023-04-25T04:03:39.919Z,99446.50
2023-04-25T04:06:43.249Z,99444.91
2023-04-25T04:09:45.102Z,99451.13
2023-04-25T04:12:46.952Z,99450.88
2023-04-25T04:15:48.856Z,99458.56
2023-04-25T04:18:50.939Z,99445.41
2023-04-25T04:21:52.841Z,99467.09
2023-04-25T04:24:55.302Z,99466.59
2023-04-25T04:27:57.135Z,99458.31
2023-04-25T04:30:58.998Z,99465.28
2023-04-25T04:34:01.970Z,99464.41
2023-04-25T04:37:03.866Z,99467.09
2023-04-25T04:40:06.698Z,99477.56
2023-04-25T04:43:11.966Z,99483.44
2023-04-25T04:46:13.879Z,99486.59
2023-04-25T04:49:16.049Z,99488.78
2023-04-25T04:52:18.076Z,99487.78
2023-04-25T04:55:20.233Z,99490.97
2023-04-25T04:58:23.133Z,99483.41
2023-04-25T05:01:26.128Z,99471.84
2023-04-25T05:04:28.238Z,99477.56
2023-04-25T05:07:30.141Z,99481.47
2023-04-25T05:10:32.426Z,99483.69
2023-04-25T05:13:34.206Z,99488.69
2023-04-25T05:16:36.401Z,99492.06
2023-04-25T05:19:39.058Z,99489.38
2023-04-25T05:22:42.646Z,99486.31
2023-04-25T05:25:44.470Z,99484.63
2023-04-25T05:28:46.504Z,99493.44
2023-04-25T05:31:49.387Z,99499.66
2023-04-25T05:34:51.251Z,99485.09
2023-04-25T05:37:53.063Z,99472.41
2023-04-25T05:40:54.990Z,99475.53
2023-04-25T05:43:58.130Z,99488.09
2023-04-25T05:47:00.375Z,99482.97
2023-04-25T05:50:02.386Z,99478.47
2023-04-25T05:53:04.399Z,99484.19
2023-04-25T05:56:06.277Z,99482.00
2023-04-25T05:59:08.189Z,99480.25
2023-04-25T06:02:10.363Z,99482.00
2023-04-25T06:05:12.508Z,99482.34
2023-04-25T06:08:14.690Z,99487.59
2023-04-25T06:11:16.568Z,99457.72
2023-04-25T06:14:18.656Z,99486.00
2023-04-25T06:17:20.691Z,99490.50
2023-04-25T06:20:25.024Z,99496.81
2023-04-25T06:23:27.066Z,99489.38
2023-04-25T06:26:29.013Z,99498.72
2023-04-25T06:29:30.890Z,99505.91
2023-04-25T06:32:33.539Z,99491.81
2023-04-25T06:35:35.808Z,99501.62
2023-04-25T06:38:37.843Z,99504.66
2023-04-25T06:41:39.988Z,99491.97
2023-04-25T06:44:42.000Z,99486.69
2023-04-25T06:47:44.014Z,99497.37
2023-04-25T06:50:45.918Z,99492.00
2023-04-25T06:53:47.790Z,99497.87
2023-04-25T06:56:50.055Z,99490.56
2023-04-25T06:59:51.890Z,99495.69
2023-04-25T07:02:54.039Z,99486.94
2023-04-25T07:05:56.107Z,99481.34
2023-04-25T07:08:57.945Z,99481.00
2023-04-25T07:12:00.330Z,99482.72
2023-04-25T07:15:06.834Z,99478.28
2023-04-25T07:18:08.727Z,99482.22
2023-04-25T07:21:10.711Z,99475.37
2023-04-25T07:24:12.579Z,99479.28
2023-04-25T07:27:14.363Z,99474.66
2023-04-25T07:30:16.274Z,99474.41
2023-04-25T07:33:18.222Z,99458.69
2023-04-25T07:36:20.174Z,99465.28
2023-04-25T07:39:22.246Z,99471.69
2023-04-25T07:42:24.264Z,99474.25
2023-04-25T07:45:26.217Z,99474.59
2023-04-25T07:48:28.115Z,99470.06
2023-04-25T07:51:29.906Z,99467.78
2023-04-25T07:54:32.104Z,99471.41
2023-04-25T07:57:33.886Z,99461.41
2023-04-25T08:00:36.350Z,99465.50
2023-04-25T08:03:38.533Z,99444.50
2023-04-25T08:06:41.549Z,99468.56
2023-04-25T08:09:43.480Z,99470.88
2023-04-25T08:12:45.713Z,99473.91
2023-04-25T08:15:47.728Z,99472.16
2023-04-25T08:18:51.191Z,99464.09
2023-04-25T08:21:53.268Z,99467.91
2023-04-25T08:24:55.115Z,99464.88
2023-04-25T08:27:58.206Z,99460.75
2023-04-25T08:31:00.677Z,99464.81
2023-04-25T08:34:02.757Z,99458.66
2023-04-25T08:37:05.451Z,99454.13
2023-04-25T08:40:08.259Z,99463.16
2023-04-25T08:43:12.845Z,99459.53
2023-04-25T08:46:18.801Z,99460.91
2023-04-25T08:49:20.761Z,99455.09
2023-04-25T08:52:24.408Z,99451.59
2023-04-25T08:55:27.740Z,99449.03
2023-04-25T08:58:30.407Z,99465.38
2023-04-25T09:01:32.486Z,99461.06
2023-04-25T09:04:34.417Z,99444.91
2023-04-25T09:07:36.398Z,99441.81
2023-04-25T09:10:39.033Z,99436.00
2023-04-25T09:13:41.511Z,99454.00
2023-04-25T09:16:58.490Z,99452.03
2023-04-25T09:20:08.484Z,99455.97
2023-04-25T09:23:10.551Z,99434.97
2023-04-25T09:26:16.412Z,99432.09
2023-04-25T09:29:18.452Z,99430.09
2023-04-25T09:32:23.445Z,99416.25
2023-04-25T09:35:27.409Z,99426.66
2023-04-25T09:38:31.477Z,99426.81
2023-04-25T09:41:33.667Z,99430.16
2023-04-25T09:44:37.068Z,99423.06
2023-04-25T09:47:39.926Z,99424.03
2023-04-25T09:50:41.860Z,99379.53
2023-04-25T09:53:47.270Z,99404.28
2023-04-25T09:56:49.649Z,99392.66
2023-04-25T09:59:55.916Z,99401.91
2023-04-25T10:02:58.600Z,99405.97
2023-04-25T10:06:02.011Z,99417.19
2023-04-25T10:09:04.906Z,99403.66
2023-04-25T10:12:08.580Z,99409.81
2023-04-25T10:15:11.015Z,99399.31
2023-04-25T10:18:13.559Z,99399.75
2023-04-25T10:21:16.483Z,99402.94
2023-04-25T10:24:19.116Z,99403.00
2023-04-25T10:27:21.197Z,99412.09
2023-04-25T10:30:23.110Z,99395.97
2023-04-25T10:33:37.587Z,99402.59
2023-04-25T10:36:39.462Z,99419.16
2023-04-25T10:39:42.875Z,99413.16
2023-04-25T10:42:44.786Z,99428.69
2023-04-25T10:45:53.639Z,99372.94
2023-04-25T10:48:57.667Z,99373.22
2023-04-25T10:52:25.830Z,99399.75
2023-04-25T10:55:27.847Z,99372.31
2023-04-25T10:58:29.657Z,99390.41
2023-04-25T11:01:45.241Z,99400.53
2023-04-25T11:04:47.393Z,99440.53
2023-04-25T11:08:06.347Z,99407.81
2023-04-25T11:11:09.486Z,99398.03
2023-04-25T11:14:11.562Z,99414.03
2023-04-25T11:17:13.472Z,99397.19
2023-04-25T11:20:16.573Z,99383.00
2023-04-25T11:23:18.370Z,99372.78
2023-04-25T11:26:21.362Z,99365.62
2023-04-25T11:29:24.510Z,99365.97
2023-04-25T11:32:27.840Z,99396.12
2023-04-25T11:35:29.821Z,99362.94
2023-04-25T11:38:31.720Z,99368.34
2023-04-25T11:41:33.837Z,99365.19
2023-04-25T11:44:35.882Z,99395.44
2023-04-25T11:47:38.053Z,99393.44
2023-04-25T11:50:41.215Z,99368.16
2023-04-25T11:53:45.273Z,99392.81
2023-04-25T11:56:47.422Z,99401.53
2023-04-25T11:59:49.181Z,99394.81
2023-04-25T12:02:55.972Z,99377.69
2023-04-25T12:06:05.290Z,99409.50
2023-04-25T12:09:09.881Z,99397.88
2023-04-25T12:12:11.663Z,99396.38
2023-04-25T12:15:26.911Z,99390.53
2023-04-25T12:18:29.017Z,99391.22
2023-04-25T12:21:31.331Z,99391.37
2023-04-25T12:24:38.348Z,99404.59
2023-04-25T12:27:45.007Z,99427.28
2023-04-25T12:31:06.747Z,99454.16
2023-04-25T12:34:08.989Z,99443.63
2023-04-25T12:37:11.508Z,99434.19
2023-04-25T12:40:14.405Z,99444.34
2023-04-25T12:43:16.658Z,99425.56
2023-04-25T12:46:18.639Z,99406.47
2023-04-25T12:49:20.610Z,99399.53
2023-04-25T12:52:22.495Z,99360.91
2023-04-25T12:55:24.355Z,99385.25
2023-04-25T12:58:26.762Z,99350.81
2023-04-25T13:01:28.862Z,99346.59
2023-04-25T13:04:30.881Z,99335.16
2023-04-25T13:07:34.129Z,99339.84
2023-04-25T13:10:39.504Z,99314.13
2023-04-25T13:13:41.644Z,99310.94
2023-04-25T13:16:44.027Z,99320.22
2023-04-25T13:19:46.106Z,99330.03
2023-04-25T13:22:48.156Z,99282.28
2023-04-25T13:25:50.360Z,99318.72
2023-04-25T13:28:52.345Z,99301.88
2023-04-25T13:31:54.260Z,99287.34
2023-04-25T13:34:56.986Z,99314.09
2023-04-25T13:37:58.735Z,99318.00
2023-04-25T13:41:01.907Z,99303.12
2023-04-25T13:44:03.760Z,99267.34
2023-04-25T13:47:05.665Z,99283.59
2023-04-25T13:50:08.953Z,99280.72
2023-04-25T13:53:10.927Z,99279.66
2023-04-25T13:56:12.805Z,99297.06
2023-04-25T13:59:14.719Z,99302.31
2023-04-25T14:02:16.544Z,99298.63
2023-04-25T14:05:18.515Z,99297.88
2023-04-25T14:08:21.079Z,99299.16
2023-04-25T14:11:22.883Z,99295.88
2023-04-25T14:14:25.255Z,99294.78
2023-04-25T14:17:27.011Z,99270.03
2023-04-25T14:20:30.797Z,99256.34
2023-04-25T14:23:32.661Z,99268.31
2023-04-25T14:26:36.486Z,99292.37
2023-04-25T14:29:38.427Z,99275.50
2023-04-25T14:32:41.257Z,99263.25
2023-04-25T14:35:44.226Z,99274.41
2023-04-25T14:38:46.856Z,99274.47
2023-04-25T14:41:48.740Z,99288.56
2023-04-25T14:44:50.907Z,99291.72
2023-04-25T14:47:52.824Z,99276.97
2023-04-25T14:50:54.700Z,99283.47
2023-04-25T14:53:59.152Z,99280.75
2023-04-25T14:57:02.217Z,99267.66
2023-04-25T15:00:08.032Z,99281.25
2023-04-25T15:03:12.918Z,99275.94
2023-04-25T15:06:15.150Z,99297.63
2023-04-25T15:09:19.121Z,99290.75
2023-04-25T15:12:21.486Z,99277.16
2023-04-25T15:15:26.884Z,99272.19
2023-04-25T15:18:29.116Z,99282.25
2023-04-25T15:21:33.954Z,99277.03
2023-04-25T15:24:36.305Z,99263.78
2023-04-25T15:27:42.569Z,99282.06
2023-04-25T15:30:44.792Z,99292.63
2023-04-25T15:33:51.456Z,99294.94
2023-04-25T15:36:54.053Z,99312.06
2023-04-25T15:40:23.190Z,99297.03
2023-04-25T15:43:25.353Z,99318.97
2023-04-25T15:46:27.509Z,99307.69
2023-04-25T15:49:29.655Z,99329.63
2023-04-25T15:52:31.818Z,99338.97
2023-04-25T15:55:34.922Z,99325.91
2023-04-25T15:58:39.081Z,99331.56
2023-04-25T16:01:41.053Z,99319.50
2023-04-25T16:04:43.825Z,99324.97
2023-04-25T16:07:46.910Z,99324.97
2023-04-25T16:10:49.365Z,99345.91
2023-04-25T16:13:51.756Z,99359.22
2023-04-25T16:16:54.003Z,99366.91
2023-04-25T16:19:56.612Z,99364.28
2023-04-25T16:22:58.652Z,99383.06
2023-04-25T16:26:00.688Z,99384.63
2023-04-25T16:29:06.707Z,99383.84
2023-04-25T16:32:08.584Z,99397.06
2023-04-25T16:35:10.349Z,99418.00
2023-04-25T16:38:12.403Z,99469.00
2023-04-25T16:41:14.726Z,99476.69
2023-04-25T16:44:17.009Z,99477.81
2023-04-25T16:47:20.369Z,99488.91
2023-04-25T16:50:22.938Z,99492.28
2023-04-25T16:53:25.741Z,99506.88
2023-04-25T16:56:27.675Z,99495.72
2023-04-25T16:59:29.444Z,99508.56
2023-04-25T17:02:31.502Z,99510.12
2023-04-25T17:05:34.759Z,99504.59
2023-04-25T17:08:36.971Z,99508.69
2023-04-25T17:11:39.094Z,99510.09
2023-04-25T17:14:41.094Z,99526.03
2023-04-25T17:17:43.240Z,99518.50
2023-04-25T17:20:45.291Z,99522.84
2023-04-25T17:23:47.310Z,99529.78
2023-04-25T17:26:49.220Z,99524.94
2023-04-25T17:29:51.221Z,99535.69
2023-04-25T17:32:53.312Z,99545.25
2023-04-25T17:35:55.664Z,99554.00
2023-04-25T17:38:57.686Z,99559.19
2023-04-25T17:42:00.988Z,99557.59
2023-04-25T17:45:03.174Z,99568.91
2023-04-25T17:48:05.335Z,99571.63
2023-04-25T17:51:07.681Z,99573.53
2023-04-25T17:54:09.747Z,99582.59
2023-04-25T17:57:14.970Z,99584.22
2023-04-25T18:00:18.613Z,99581.63
2023-04-25T18:03:21.976Z,99594.50
2023-04-25T18:06:24.546Z,99589.16
2023-04-25T18:09:27.146Z,99594.56
2023-04-25T18:12:47.247Z,99603.09
2023-04-25T18:15:52.469Z,99609.97
2023-04-25T18:18:55.063Z,99617.41
2023-04-25T18:21:58.601Z,99625.72
2023-04-25T18:25:01.423Z,99640.50
2023-04-25T18:28:03.310Z,99643.31
2023-04-25T18:31:05.975Z,99660.16
2023-04-25T18:34:09.105Z,99662.25
2023-04-25T18:37:13.308Z,99681.53
2023-04-25T18:40:16.359Z,99667.59
2023-04-25T18:43:18.494Z,99686.41
2023-04-25T18:46:22.555Z,99691.03
2023-04-25T18:49:24.813Z,99691.28
2023-04-25T18:52:26.946Z,99695.66
2023-04-25T18:55:29.941Z,99698.59
2023-04-25T18:58:35.213Z,99706.03
2023-04-25T19:01:37.249Z,99715.31
2023-04-25T19:04:39.729Z,99708.59
2023-04-25T19:07:42.754Z,99716.28
2023-04-25T19:10:45.330Z,99720.41
2023-04-25T19:13:50.085Z,99721.50
2023-04-25T19:16:52.887Z,99718.53
2023-04-25T19:19:55.196Z,99720.22
2023-04-25T19:22:57.489Z,99718.63
2023-04-25T19:25:59.626Z,99723.38
2023-04-25T19:29:06.059Z,99719.94
2023-04-25T19:32:08.024Z,99715.91
2023-04-25T19:35:11.593Z,99713.59
2023-04-25T19:38:15.355Z,99719.19
2023-04-25T19:41:20.584Z,99722.50
2023-04-25T19:44:22.795Z,99717.22
2023-04-25T19:47:27.176Z,99712.09
2023-04-25T19:50:29.731Z,99719.00
2023-04-25T19:53:32.073Z,99711.47
2023-04-25T19:56:37.523Z,99703.81
2023-04-25T19:59:40.310Z,99704.94
2023-04-25T20:02:45.310Z,99702.84
2023-04-25T20:05:48.154Z,99709.97
2023-04-25T20:08:53.256Z,99710.56
2023-04-25T20:11:55.111Z,99713.50
2023-04-25T20:14:58.594Z,99697.41
2023-04-25T20:18:00.704Z,99704.69
2023-04-25T20:21:02.752Z,99711.59
2023-04-25T20:24:05.159Z,99714.03
2023-04-25T20:27:07.381Z,99708.00
2023-04-25T20:30:10.731Z,99710.59
2023-04-25T20:33:13.773Z,99712.28
2023-04-25T20:36:15.796Z,99697.44
2023-04-25T20:39:17.710Z,99715.09
2023-04-25T20:42:19.547Z,99710.59
2023-04-25T20:45:21.383Z,99722.38
2023-04-25T20:48:23.172Z,99724.44
2023-04-25T20:51:25.068Z,99732.78
2023-04-25T20:54:27.138Z,99733.00
2023-04-25T20:57:29.332Z,99733.84
2023-04-25T21:00:31.270Z,99730.31
2023-04-25T21:03:33.830Z,99734.84
2023-04-25T21:06:35.850Z,99737.75
2023-04-25T21:09:37.815Z,99746.53
2023-04-25T21:12:41.052Z,99746.44
2023-04-25T21:15:43.316Z,99748.81
2023-04-25T21:18:45.155Z,99746.97
2023-04-25T21:21:47.015Z,99747.16
2023-04-25T21:24:50.765Z,99749.06
2023-04-25T21:27:53.230Z,99760.16
2023-04-25T21:30:55.038Z,99762.47
2023-04-25T21:33:56.829Z,99772.47
2023-04-25T21:36:58.610Z,99766.59
2023-04-25T21:40:00.526Z,99765.72
2023-04-25T21:43:02.401Z,99774.94
2023-04-25T21:49:09.413Z,99773.69
2023-04-25T21:52:11.361Z,99790.28
2023-04-25T21:55:13.163Z,99763.19
2023-04-25T21:58:14.994Z,99781.63
2023-04-25T22:01:16.871Z,99791.06
2023-04-25T22:04:18.922Z,99802.63
2023-04-25T22:07:20.872Z,99800.28
2023-04-25T22:10:23.282Z,99812.16
2023-04-25T22:13:25.906Z,99812.38
2023-04-25T22:16:29.202Z,99816.97
2023-04-25T22:19:31.381Z,99821.16
2023-04-25T22:22:34.126Z,99830.88
2023-04-25T22:25:36.033Z,99798.00
2023-04-25T22:28:38.832Z,99819.75
2023-04-25T22:31:40.881Z,99825.97
2023-04-25T22:34:42.776Z,99820.81
2023-04-25T22:37:44.928Z,99827.78
2023-04-25T22:40:48.132Z,99823.28
2023-04-25T22:43:50.145Z,99813.97
2023-04-25T22:46:51.869Z,99814.66
2023-04-25T22:49:54.119Z,99820.50
2023-04-25T22:52:55.959Z,99815.69
2023-04-25T22:55:58.315Z,99821.81
2023-04-25T22:59:00.351Z,99826.41
2023-04-25T23:02:04.046Z,99822.31
2023-04-25T23:05:07.148Z,99821.59
2023-04-25T23:08:09.820Z,99819.66
2023-04-25T23:11:11.710Z,99822.31
2023-04-25T23:14:13.709Z,99824.78
2023-04-25T23:17:15.489Z,99816.13
2023-04-25T23:20:17.717Z,99824.06
2023-04-25T23:23:19.490Z,99827.81
2023-04-25T23:26:21.923Z,99827.47
2023-04-25T23:29:23.761Z,99831.97
2023-04-25T23:32:26.355Z,99829.97
2023-04-25T23:35:28.295Z,99820.09
2023-04-25T23:38:30.086Z,99831.75
2023-04-25T23:41:32.130Z,99826.59
2023-04-25T23:44:34.229Z,99836.25
2023-04-25T23:47:36.255Z,99840.84
2023-04-25T23:50:38.257Z,99830.91
2023-04-25T23:53:40.046Z,99835.94
2023-04-25T23:56:41.928Z,99840.31
2023-04-25T23:59:47.037Z,99850.06
